Time;durP1;ratioP1;P1;durP2;ratioP2;P2;SDS_P1;SDS_P2;PMS_P1;PMS_P2;Temp;Humidity;BMP_temperature;BMP_pressure;BME280_temperature;BME280_humidity;BME280_pressure;Samples;Min_cycle;Max_cycle;Signal;HPM_P1;HPM_P2
2021/12/18 00:02:15;;;;;;;12.83;7.57;;;;;;;;;;5014390;28;20498;-80
2021/12/18 00:04:41;;;;;;;14.93;6.57;;;;;;;;;;5029163;28;20030;-80
2021/12/18 00:07:08;;;;;;;13.67;7.23;;;;;;;;;;5032143;28;20472;-80
2021/12/18 00:09:34;;;;;;;14.30;6.77;;;;;;;;;;5032153;28;20139;-79
2021/12/18 00:12:02;;;;;;;14.50;7.13;;;;;;;;;;5031946;28;20065;-79
2021/12/18 00:14:29;;;;;;;9.73;6.03;;;;;;;;;;5032440;28;20526;-79
2021/12/18 00:16:55;;;;;;;12.53;6.47;;;;;;;;;;5032825;28;20037;-79
2021/12/18 00:19:25;;;;;;;13.73;6.33;;;;;;;;;;5032805;28;20045;-80
2021/12/18 00:21:52;;;;;;;12.57;5.83;;;;;;;;;;5014677;28;20037;-80
2021/12/18 00:24:19;;;;;;;12.80;5.80;;;;;;;;;;5012532;28;20037;-79
2021/12/18 00:26:45;;;;;;;12.83;5.90;;;;;;;;;;5030205;28;20382;-80
2021/12/18 00:29:12;;;;;;;12.73;5.73;;;;;;;;;;5035424;28;20029;-80
2021/12/18 00:31:38;;;;;;;11.23;6.23;;;;;;;;;;5030201;28;20025;-79
2021/12/18 00:34:04;;;;;;;9.20;5.33;;;;;;;;;;5035462;28;20476;-81
2021/12/18 00:36:31;;;;;;;9.67;5.30;;;;;;;;;;5035920;28;20029;-80
2021/12/18 00:38:57;;;;;;;10.67;5.80;;;;;;;;;;5018156;28;20086;-81
2021/12/18 00:44:03;;;;;;;11.10;5.40;;;;;;;;;;5035986;28;20061;-81
2021/12/18 00:46:30;;;;;;;8.93;4.33;;;;;;;;;;5016879;28;20416;-79
2021/12/18 00:48:57;;;;;;;13.50;5.57;;;;;;;;;;5022620;28;20389;-80
2021/12/18 00:51:24;;;;;;;9.37;5.07;;;;;;;;;;5035686;28;20024;-79
2021/12/18 00:53:50;;;;;;;15.10;5.87;;;;;;;;;;5018007;28;20476;-79
2021/12/18 00:56:16;;;;;;;17.07;5.40;;;;;;;;;;5030632;28;20021;-80
2021/12/18 00:58:43;;;;;;;18.13;5.77;;;;;;;;;;5017323;28;20037;-79
2021/12/18 01:01:11;;;;;;;16.57;5.73;;;;;;;;;;5018027;28;20402;-80
2021/12/18 01:03:39;;;;;;;14.87;6.50;;;;;;;;;;5033241;28;20331;-78
2021/12/18 01:06:05;;;;;;;12.10;5.57;;;;;;;;;;5018021;28;20147;-80
2021/12/18 01:08:32;;;;;;;12.53;5.57;;;;;;;;;;5016978;28;20039;-79
2021/12/18 01:11:25;;;;;;;11.50;4.60;;;;;;;;;;5017275;28;20380;-79
2021/12/18 01:16:24;;;;;;;8.07;4.93;;;;;;;;;;5023013;28;20103;-81
2021/12/18 01:24:20;;;;;;;13.90;5.17;;;;;;;;;;5029665;28;20037;-79
2021/12/18 01:26:46;;;;;;;11.67;5.63;;;;;;;;;;5047865;28;20025;-78
2021/12/18 01:29:13;;;;;;;15.03;6.97;;;;;;;;;;5045191;28;20030;-80
2021/12/18 01:31:39;;;;;;;15.93;6.00;;;;;;;;;;5047314;28;20033;-78
2021/12/18 01:34:05;;;;;;;17.33;6.23;;;;;;;;;;5043454;28;20062;-79
2021/12/18 01:36:32;;;;;;;15.20;6.60;;;;;;;;;;5038002;28;20041;-79
2021/12/18 01:39:00;;;;;;;12.70;6.60;;;;;;;;;;5034248;28;20025;-78
2021/12/18 01:41:34;;;;;;;17.53;7.20;;;;;;;;;;5009563;28;20037;-79
2021/12/18 01:44:48;;;;;;;14.00;6.43;;;;;;;;;;5010120;28;20044;-80
2021/12/18 01:51:16;;;;;;;15.57;6.67;;;;;;;;;;5022860;28;20080;-79
2021/12/18 01:52:32;;;;;;;18.93;7.47;;;;;;;;;;5023312;28;20032;-80
2021/12/18 01:54:58;;;;;;;13.10;6.77;;;;;;;;;;5030293;28;20111;-79
2021/12/18 01:57:24;;;;;;;16.40;7.60;;;;;;;;;;5027891;28;20186;-79
2021/12/18 01:59:51;;;;;;;16.43;7.53;;;;;;;;;;5028127;28;20030;-79
2021/12/18 02:02:18;;;;;;;21.80;10.40;;;;;;;;;;5033213;28;20030;-79
2021/12/18 02:04:45;;;;;;;25.17;13.57;;;;;;;;;;5032620;28;20033;-79
2021/12/18 02:07:11;;;;;;;33.57;14.57;;;;;;;;;;5012245;28;20224;-80
2021/12/18 02:12:18;;;;;;;41.70;16.10;;;;;;;;;;5028442;28;20034;-80
2021/12/18 02:20:35;;;;;;;51.87;20.53;;;;;;;;;;5015434;28;20105;-80
2021/12/18 02:23:02;;;;;;;46.93;20.50;;;;;;;;;;5014526;28;20113;-81
2021/12/18 02:25:31;;;;;;;36.33;17.07;;;;;;;;;;4996725;28;20037;-79
2021/12/18 02:27:57;;;;;;;69.63;29.93;;;;;;;;;;5026373;28;20416;-80
2021/12/18 02:30:24;;;;;;;45.10;21.80;;;;;;;;;;5029416;28;20105;-82
2021/12/18 02:32:51;;;;;;;67.17;29.77;;;;;;;;;;5030310;28;20545;-79
2021/12/18 02:35:52;;;;;;;58.73;26.20;;;;;;;;;;5025257;28;20303;-80
2021/12/18 02:38:33;;;;;;;61.40;28.57;;;;;;;;;;5023843;28;20040;-80
2021/12/18 02:41:12;;;;;;;50.67;23.63;;;;;;;;;;5024684;28;20025;-79
2021/12/18 02:43:40;;;;;;;39.73;20.30;;;;;;;;;;5004560;28;20042;-79
2021/12/18 02:46:08;;;;;;;38.40;19.77;;;;;;;;;;5022795;28;20184;-80
2021/12/18 02:48:41;;;;;;;43.37;21.60;;;;;;;;;;5005078;28;20037;-81
2021/12/18 02:51:09;;;;;;;46.97;20.73;;;;;;;;;;5032927;28;20033;-80
2021/12/18 02:53:36;;;;;;;48.87;21.07;;;;;;;;;;5025460;28;20040;-81
2021/12/18 02:56:04;;;;;;;40.97;19.90;;;;;;;;;;5024910;28;20034;-80
2021/12/18 02:58:31;;;;;;;32.20;18.30;;;;;;;;;;5027227;28;20461;-80
2021/12/18 03:01:00;;;;;;;38.42;18.58;;;;;;;;;;5006482;28;20033;-80
2021/12/18 03:03:31;;;;;;;35.93;18.23;;;;;;;;;;5008053;28;20117;-79
2021/12/18 03:06:19;;;;;;;38.37;19.97;;;;;;;;;;5002859;28;20073;-80
2021/12/18 03:08:58;;;;;;;41.67;19.37;;;;;;;;;;5023971;28;20030;-79
2021/12/18 03:22:49;;;;;;;53.58;23.80;;;;;;;;;;5025871;28;20041;-80
2021/12/18 03:25:18;;;;;;;47.58;21.25;;;;;;;;;;5024198;28;20036;-80
2021/12/18 03:27:45;;;;;;;38.70;19.58;;;;;;;;;;5025552;28;20030;-81
2021/12/18 03:30:11;;;;;;;43.65;20.38;;;;;;;;;;5024925;28;20451;-81
2021/12/18 03:32:38;;;;;;;47.63;20.45;;;;;;;;;;5030110;28;20021;-81
2021/12/18 03:35:05;;;;;;;43.95;20.30;;;;;;;;;;5006050;28;20034;-81
2021/12/18 03:37:34;;;;;;;45.83;19.42;;;;;;;;;;5027106;28;20480;-82
2021/12/18 03:40:00;;;;;;;43.08;18.17;;;;;;;;;;5021786;28;20694;-81
2021/12/18 03:42:26;;;;;;;47.22;18.73;;;;;;;;;;5022940;28;20546;-81
2021/12/18 03:44:53;;;;;;;43.05;19.00;;;;;;;;;;5004478;28;20026;-81
2021/12/18 03:47:19;;;;;;;43.10;18.90;;;;;;;;;;5021181;28;20131;-80
2021/12/18 03:49:46;;;;;;;39.00;18.48;;;;;;;;;;5022418;28;20022;-80
2021/12/18 03:52:12;;;;;;;37.28;16.63;;;;;;;;;;5024685;28;20017;-80
2021/12/18 03:54:38;;;;;;;35.42;15.95;;;;;;;;;;5007773;28;20071;-80
2021/12/18 03:57:05;;;;;;;33.15;15.80;;;;;;;;;;5027388;28;20602;-80
2021/12/18 03:59:32;;;;;;;37.90;18.35;;;;;;;;;;5006243;28;20038;-81
2021/12/18 04:01:59;;;;;;;35.67;15.07;;;;;;;;;;5026647;28;20088;-82
2021/12/18 04:04:25;;;;;;;37.83;15.73;;;;;;;;;;5028681;28;20037;-81
2021/12/18 04:06:52;;;;;;;37.13;15.55;;;;;;;;;;5010118;28;20065;-80
2021/12/18 04:09:18;;;;;;;37.28;17.40;;;;;;;;;;5021271;28;20026;-81
2021/12/18 04:11:45;;;;;;;39.83;17.25;;;;;;;;;;5025242;28;20478;-80
2021/12/18 04:14:12;;;;;;;34.35;14.68;;;;;;;;;;5028009;28;20045;-80
2021/12/18 04:16:39;;;;;;;36.47;16.63;;;;;;;;;;5024825;28;20464;-81
2021/12/18 04:19:05;;;;;;;34.63;15.05;;;;;;;;;;5008921;28;20048;-80
2021/12/18 04:21:33;;;;;;;36.03;15.75;;;;;;;;;;5028090;28;20037;-81
2021/12/18 04:24:00;;;;;;;34.83;15.20;;;;;;;;;;5026752;28;20103;-80
2021/12/18 04:26:26;;;;;;;32.50;14.90;;;;;;;;;;5025302;28;20038;-80
2021/12/18 04:28:53;;;;;;;33.03;15.38;;;;;;;;;;5013753;28;20030;-80
2021/12/18 04:31:19;;;;;;;37.00;14.70;;;;;;;;;;5028992;28;20484;-81
2021/12/18 04:33:46;;;;;;;38.75;16.05;;;;;;;;;;5028454;28;20493;-79
2021/12/18 04:36:12;;;;;;;29.13;16.35;;;;;;;;;;5032526;28;20029;-82
2021/12/18 04:38:38;;;;;;;39.80;16.90;;;;;;;;;;5028048;28;20026;-80
2021/12/18 04:41:05;;;;;;;29.52;16.67;;;;;;;;;;5034846;28;20018;-79
2021/12/18 04:43:32;;;;;;;44.10;19.83;;;;;;;;;;5038898;28;20029;-80
2021/12/18 04:45:59;;;;;;;48.10;21.00;;;;;;;;;;5012610;28;20087;-81
2021/12/18 04:48:25;;;;;;;52.20;24.95;;;;;;;;;;5026032;28;20489;-80
2021/12/18 04:50:52;;;;;;;51.58;23.90;;;;;;;;;;5028790;28;20034;-80
2021/12/18 04:53:18;;;;;;;53.80;25.52;;;;;;;;;;5030450;28;20021;-81
2021/12/18 04:55:44;;;;;;;50.13;23.80;;;;;;;;;;5027796;28;20444;-80
2021/12/18 04:58:11;;;;;;;49.28;24.80;;;;;;;;;;5020112;28;20037;-79
2021/12/18 05:00:39;;;;;;;61.58;25.15;;;;;;;;;;5006598;28;20044;-79
2021/12/18 05:03:06;;;;;;;46.30;22.83;;;;;;;;;;5025265;28;20224;-80
2021/12/18 05:05:33;;;;;;;45.50;23.13;;;;;;;;;;5026045;28;20127;-80
2021/12/18 05:08:00;;;;;;;51.50;24.23;;;;;;;;;;5025821;28;20100;-80
2021/12/18 05:10:26;;;;;;;52.90;25.17;;;;;;;;;;5024167;28;20029;-80
2021/12/18 05:12:53;;;;;;;52.05;25.52;;;;;;;;;;4992885;28;20092;-80
2021/12/18 05:15:19;;;;;;;49.38;24.65;;;;;;;;;;5029044;28;20113;-79
2021/12/18 05:17:45;;;;;;;53.72;23.85;;;;;;;;;;5027405;28;20036;-80
2021/12/18 05:20:12;;;;;;;46.00;23.38;;;;;;;;;;5029767;28;20434;-79
2021/12/18 05:22:38;;;;;;;46.60;22.08;;;;;;;;;;5032486;28;20040;-81
2021/12/18 05:25:05;;;;;;;42.67;20.00;;;;;;;;;;5028953;28;20486;-80
2021/12/18 05:27:32;;;;;;;44.63;20.58;;;;;;;;;;5027834;28;20025;-79
2021/12/18 05:29:58;;;;;;;37.10;19.17;;;;;;;;;;5027926;28;20102;-81
2021/12/18 05:32:25;;;;;;;35.55;17.95;;;;;;;;;;5026036;28;20491;-81
2021/12/18 05:34:51;;;;;;;40.65;17.83;;;;;;;;;;5031698;28;20049;-81
2021/12/18 05:37:20;;;;;;;33.38;17.42;;;;;;;;;;5031600;28;20476;-81
2021/12/18 05:39:50;;;;;;;36.25;17.17;;;;;;;;;;5010953;28;20106;-82
2021/12/18 05:42:17;;;;;;;29.67;16.10;;;;;;;;;;5028199;28;20052;-81
2021/12/18 05:44:43;;;;;;;41.53;17.50;;;;;;;;;;5019777;28;20034;-81
2021/12/18 05:47:10;;;;;;;34.45;16.88;;;;;;;;;;5017261;28;20024;-79
2021/12/18 05:49:37;;;;;;;37.72;17.88;;;;;;;;;;5034601;28;20021;-80
2021/12/18 05:52:03;;;;;;;22.90;12.43;;;;;;;;;;5014921;28;20517;-80
2021/12/18 05:54:34;;;;;;;30.90;12.95;;;;;;;;;;5017471;28;20502;-80
2021/12/18 05:57:01;;;;;;;23.58;12.57;;;;;;;;;;5027199;28;20141;-81
2021/12/18 05:59:28;;;;;;;28.98;12.15;;;;;;;;;;5020574;28;20033;-81
2021/12/18 06:01:54;;;;;;;30.35;13.20;;;;;;;;;;5025593;28;20025;-87
2021/12/18 06:04:20;;;;;;;27.80;12.10;;;;;;;;;;5009364;28;20141;-80
2021/12/18 06:06:47;;;;;;;26.85;12.45;;;;;;;;;;5034986;28;20030;-81
2021/12/18 06:09:13;;;;;;;25.35;12.13;;;;;;;;;;5009541;28;20118;-81
2021/12/18 06:11:41;;;;;;;22.10;10.43;;;;;;;;;;5028919;28;20022;-82
2021/12/18 06:14:07;;;;;;;21.65;11.40;;;;;;;;;;5029834;28;20611;-83
2021/12/18 06:16:34;;;;;;;25.13;11.98;;;;;;;;;;5032059;28;20060;-80
2021/12/18 06:19:00;;;;;;;36.33;18.00;;;;;;;;;;5026785;28;20023;-81
2021/12/18 06:21:27;;;;;;;38.00;16.75;;;;;;;;;;5029958;28;20034;-81
2021/12/18 06:23:54;;;;;;;37.15;17.63;;;;;;;;;;5011999;28;20885;-81
2021/12/18 06:26:21;;;;;;;37.25;16.02;;;;;;;;;;5026503;28;20484;-81
2021/12/18 06:28:47;;;;;;;34.10;16.75;;;;;;;;;;5027905;28;20431;-81
2021/12/18 06:31:14;;;;;;;34.53;17.63;;;;;;;;;;5024849;28;20112;-84
2021/12/18 06:33:40;;;;;;;33.78;18.40;;;;;;;;;;5025099;28;20042;-80
2021/12/18 06:36:07;;;;;;;39.42;19.10;;;;;;;;;;5030159;28;20103;-81
2021/12/18 06:38:33;;;;;;;35.65;19.42;;;;;;;;;;5025432;28;20037;-81
2021/12/18 06:40:59;;;;;;;39.30;20.80;;;;;;;;;;5010771;28;20057;-80
2021/12/18 06:43:26;;;;;;;41.20;20.45;;;;;;;;;;5024963;28;20100;-80
2021/12/18 06:45:52;;;;;;;42.72;22.00;;;;;;;;;;5028645;28;20030;-81
2021/12/18 06:48:18;;;;;;;38.92;20.75;;;;;;;;;;5027611;28;20022;-81
2021/12/18 06:50:45;;;;;;;34.88;19.40;;;;;;;;;;5026653;28;20498;-81
2021/12/18 06:53:11;;;;;;;31.10;17.88;;;;;;;;;;5029295;28;20060;-79
2021/12/18 06:55:38;;;;;;;26.05;13.35;;;;;;;;;;5026848;28;20198;-81
2021/12/18 06:58:04;;;;;;;37.35;17.95;;;;;;;;;;5031359;28;20033;-80
2021/12/18 07:00:31;;;;;;;36.90;19.13;;;;;;;;;;5027424;28;20033;-82
2021/12/18 07:02:57;;;;;;;33.55;19.88;;;;;;;;;;5011436;28;20033;-80
2021/12/18 07:05:24;;;;;;;35.28;21.52;;;;;;;;;;5032181;28;20025;-81
2021/12/18 07:07:51;;;;;;;38.55;21.15;;;;;;;;;;5040968;28;20030;-79
2021/12/18 07:10:18;;;;;;;31.77;17.70;;;;;;;;;;5029178;28;20056;-82
2021/12/18 07:12:44;;;;;;;28.08;16.67;;;;;;;;;;5031648;28;20021;-82
2021/12/18 07:15:12;;;;;;;28.67;17.65;;;;;;;;;;5028721;28;20053;-81
2021/12/18 07:17:39;;;;;;;29.25;19.38;;;;;;;;;;5029227;28;20017;-81
2021/12/18 07:20:06;;;;;;;32.15;19.58;;;;;;;;;;5012350;28;20036;-81
2021/12/18 07:22:33;;;;;;;33.88;19.00;;;;;;;;;;5031782;28;20029;-80
2021/12/18 07:24:59;;;;;;;33.17;16.63;;;;;;;;;;5028208;28;20026;-81
2021/12/18 07:27:25;;;;;;;24.40;15.98;;;;;;;;;;5012820;28;20029;-82
2021/12/18 07:29:52;;;;;;;30.67;16.38;;;;;;;;;;5023689;28;20018;-81
2021/12/18 07:32:18;;;;;;;34.40;19.42;;;;;;;;;;5005453;28;20017;-81
2021/12/18 07:34:44;;;;;;;30.40;18.30;;;;;;;;;;5027005;28;20100;-81
2021/12/18 07:37:11;;;;;;;29.27;18.63;;;;;;;;;;5012666;28;20448;-81
2021/12/18 07:39:37;;;;;;;31.83;19.65;;;;;;;;;;5013215;28;20040;-82
2021/12/18 07:42:04;;;;;;;37.72;19.75;;;;;;;;;;5027300;28;20033;-80
2021/12/18 07:44:30;;;;;;;35.53;20.35;;;;;;;;;;5009504;28;20361;-84
2021/12/18 07:46:57;;;;;;;37.15;21.77;;;;;;;;;;5029950;28;20048;-82
2021/12/18 07:49:23;;;;;;;38.10;22.80;;;;;;;;;;5025753;28;20030;-81
2021/12/18 07:51:49;;;;;;;42.08;23.92;;;;;;;;;;5029904;28;20488;-81
2021/12/18 07:54:16;;;;;;;39.42;25.63;;;;;;;;;;5028254;28;20041;-81
2021/12/18 07:56:43;;;;;;;35.83;24.58;;;;;;;;;;5010599;28;20392;-81
2021/12/18 07:59:09;;;;;;;37.33;24.67;;;;;;;;;;5011985;28;20587;-82
2021/12/18 08:01:36;;;;;;;40.85;26.15;;;;;;;;;;5031815;28;20025;-80
2021/12/18 08:04:02;;;;;;;44.03;29.15;;;;;;;;;;5030276;28;20025;-82
2021/12/18 08:06:29;;;;;;;48.05;28.15;;;;;;;;;;5031879;28;20029;-81
2021/12/18 08:08:55;;;;;;;48.60;29.27;;;;;;;;;;5030611;28;20100;-81
2021/12/18 08:11:21;;;;;;;45.40;27.38;;;;;;;;;;5029718;28;20024;-82
2021/12/18 08:13:48;;;;;;;43.58;26.60;;;;;;;;;;5026761;28;20018;-79
2021/12/18 08:16:14;;;;;;;42.90;26.00;;;;;;;;;;5025913;28;20021;-82
2021/12/18 08:18:41;;;;;;;41.72;25.50;;;;;;;;;;5010996;28;20099;-81
2021/12/18 08:21:07;;;;;;;43.08;27.63;;;;;;;;;;5028321;28;20375;-83
2021/12/18 08:23:33;;;;;;;47.67;26.98;;;;;;;;;;5030178;28;21511;-80
2021/12/18 08:26:00;;;;;;;53.80;33.72;;;;;;;;;;5022957;28;20421;-81
2021/12/18 08:28:26;;;;;;;54.88;33.95;;;;;;;;;;5027788;28;20030;-80
2021/12/18 08:30:53;;;;;;;58.22;35.22;;;;;;;;;;5025446;28;20022;-81
2021/12/18 08:33:19;;;;;;;58.85;40.58;;;;;;;;;;5029780;28;20097;-81
2021/12/18 08:35:46;;;;;;;70.07;44.20;;;;;;;;;;5030973;28;20025;-81
2021/12/18 08:38:12;;;;;;;74.03;45.95;;;;;;;;;;5030049;28;20175;-79
2021/12/18 08:40:38;;;;;;;73.90;48.65;;;;;;;;;;5023287;28;20131;-81
2021/12/18 08:43:05;;;;;;;74.53;47.03;;;;;;;;;;5029616;28;20487;-80
2021/12/18 08:45:31;;;;;;;52.13;34.45;;;;;;;;;;5031727;28;20249;-81
2021/12/18 08:47:58;;;;;;;47.60;29.38;;;;;;;;;;5032697;28;20061;-81
2021/12/18 08:50:24;;;;;;;37.80;24.73;;;;;;;;;;5031239;28;20060;-81
2021/12/18 08:52:51;;;;;;;34.28;19.52;;;;;;;;;;5027988;28;20021;-81
2021/12/18 08:55:18;;;;;;;29.30;18.50;;;;;;;;;;5029997;28;20510;-80
2021/12/18 08:57:45;;;;;;;31.83;19.55;;;;;;;;;;5027897;28;20040;-81
2021/12/18 09:00:13;;;;;;;26.38;16.65;;;;;;;;;;5029960;28;20033;-80
2021/12/18 09:02:40;;;;;;;22.98;13.55;;;;;;;;;;5030984;28;20053;-81
2021/12/18 09:05:07;;;;;;;22.00;12.02;;;;;;;;;;5034621;28;20392;-82
2021/12/18 09:07:34;;;;;;;19.33;11.77;;;;;;;;;;5033495;28;20041;-80
2021/12/18 09:10:01;;;;;;;21.17;13.10;;;;;;;;;;5029932;28;20079;-81
2021/12/18 09:12:28;;;;;;;25.73;12.40;;;;;;;;;;5033353;28;20029;-81
2021/12/18 09:14:55;;;;;;;22.98;12.23;;;;;;;;;;5033427;28;20064;-82
2021/12/18 09:17:21;;;;;;;17.90;11.35;;;;;;;;;;5028904;28;20023;-81
2021/12/18 09:19:47;;;;;;;18.27;10.85;;;;;;;;;;5030318;28;20056;-81
2021/12/18 09:22:14;;;;;;;16.75;10.00;;;;;;;;;;5011297;28;20040;-81
2021/12/18 09:24:40;;;;;;;19.90;10.15;;;;;;;;;;5034251;28;20039;-81
2021/12/18 09:27:07;;;;;;;21.42;11.27;;;;;;;;;;5033668;28;20026;-80
2021/12/18 09:29:33;;;;;;;19.10;10.95;;;;;;;;;;5028924;28;20507;-80
2021/12/18 09:32:00;;;;;;;21.38;12.65;;;;;;;;;;5029987;28;20498;-81
2021/12/18 09:34:28;;;;;;;26.48;13.48;;;;;;;;;;5014538;28;20125;-80
2021/12/18 09:36:54;;;;;;;20.65;11.88;;;;;;;;;;5026353;28;20495;-79
2021/12/18 09:39:21;;;;;;;23.05;12.90;;;;;;;;;;5017065;28;20116;-80
2021/12/18 09:41:50;;;;;;;25.25;13.43;;;;;;;;;;5029433;28;20392;-81
2021/12/18 09:44:27;;;;;;;23.40;12.05;;;;;;;;;;5028215;28;20137;-82
2021/12/18 09:46:54;;;;;;;20.80;12.77;;;;;;;;;;5027350;28;20032;-81
2021/12/18 09:49:20;;;;;;;22.73;11.63;;;;;;;;;;5012352;28;20560;-81
2021/12/18 09:51:47;;;;;;;19.55;11.07;;;;;;;;;;5028458;28;20479;-81
2021/12/18 09:54:13;;;;;;;24.02;11.05;;;;;;;;;;5007569;28;20026;-81
2021/12/18 09:56:40;;;;;;;23.35;11.68;;;;;;;;;;5021396;28;20029;-82
2021/12/18 09:59:07;;;;;;;22.65;11.35;;;;;;;;;;5007693;28;20026;-80
2021/12/18 10:01:33;;;;;;;21.70;12.88;;;;;;;;;;5027383;28;20021;-81
2021/12/18 10:04:01;;;;;;;20.77;11.82;;;;;;;;;;5024857;28;20029;-80
2021/12/18 10:06:34;;;;;;;24.92;12.60;;;;;;;;;;5023727;28;20061;-81
2021/12/18 10:09:00;;;;;;;26.63;12.65;;;;;;;;;;5016029;28;20029;-81
2021/12/18 10:11:27;;;;;;;21.90;12.70;;;;;;;;;;5003375;28;20037;-80
2021/12/18 10:13:54;;;;;;;28.38;13.27;;;;;;;;;;5031888;28;20046;-80
2021/12/18 10:16:21;;;;;;;24.70;13.80;;;;;;;;;;5029384;28;20036;-80
2021/12/18 10:18:50;;;;;;;24.23;14.32;;;;;;;;;;5026598;28;20037;-81
2021/12/18 10:21:18;;;;;;;26.13;14.93;;;;;;;;;;5030414;28;20136;-80
2021/12/18 10:23:45;;;;;;;27.85;14.10;;;;;;;;;;5012630;28;20136;-81
2021/12/18 10:26:30;;;;;;;30.13;16.17;;;;;;;;;;5026230;28;20029;-81
2021/12/18 10:28:56;;;;;;;29.20;15.43;;;;;;;;;;5027427;28;20454;-81
2021/12/18 10:31:43;;;;;;;29.48;15.93;;;;;;;;;;5029066;28;20021;-81
2021/12/18 10:34:16;;;;;;;45.30;24.58;;;;;;;;;;5029376;28;20083;-81
2021/12/18 10:36:43;;;;;;;43.42;24.13;;;;;;;;;;5011848;28;20034;-82
2021/12/18 10:39:18;;;;;;;40.50;24.42;;;;;;;;;;5029529;28;20022;-82
2021/12/18 10:41:44;;;;;;;46.85;24.90;;;;;;;;;;5031798;28;20071;-81
2021/12/18 10:44:12;;;;;;;43.92;26.08;;;;;;;;;;5030442;28;20018;-81
2021/12/18 10:46:43;;;;;;;51.45;25.70;;;;;;;;;;5025252;28;20025;-81
2021/12/18 10:49:10;;;;;;;41.63;24.08;;;;;;;;;;5032953;28;20022;-80
2021/12/18 10:51:38;;;;;;;42.35;24.92;;;;;;;;;;5031325;28;20025;-82
2021/12/18 10:54:06;;;;;;;46.05;25.67;;;;;;;;;;5009249;28;20562;-82
2021/12/18 10:56:39;;;;;;;47.75;24.35;;;;;;;;;;5026806;28;20104;-81
2021/12/18 10:59:07;;;;;;;43.67;25.08;;;;;;;;;;5027881;28;20021;-81
2021/12/18 11:01:36;;;;;;;46.20;24.20;;;;;;;;;;5023831;28;20021;-80
2021/12/18 11:04:03;;;;;;;48.17;24.45;;;;;;;;;;5032107;28;20369;-81
2021/12/18 11:06:32;;;;;;;48.63;24.67;;;;;;;;;;5031853;28;20075;-81
2021/12/18 11:09:05;;;;;;;55.28;26.98;;;;;;;;;;5031026;28;20031;-80
2021/12/18 11:14:09;;;;;;;59.03;27.85;;;;;;;;;;5028586;28;20057;-83
2021/12/18 11:16:37;;;;;;;56.33;27.08;;;;;;;;;;5025430;28;20599;-81
2021/12/18 11:19:05;;;;;;;59.42;27.40;;;;;;;;;;5023928;28;20477;-80
2021/12/18 11:21:31;;;;;;;56.10;27.75;;;;;;;;;;5022145;28;20562;-80
2021/12/18 11:24:06;;;;;;;54.60;28.30;;;;;;;;;;5022152;28;20472;-80
2021/12/18 11:26:36;;;;;;;50.53;27.35;;;;;;;;;;5020921;28;20025;-79
2021/12/18 11:29:04;;;;;;;53.75;26.67;;;;;;;;;;5022852;28;20021;-81
2021/12/18 11:31:31;;;;;;;47.85;26.13;;;;;;;;;;5026568;28;20029;-80
2021/12/18 11:33:58;;;;;;;55.78;28.58;;;;;;;;;;5024321;28;20104;-80
2021/12/18 11:36:24;;;;;;;55.60;29.63;;;;;;;;;;5022006;28;20029;-80
2021/12/18 11:38:53;;;;;;;57.95;30.85;;;;;;;;;;5025931;28;20029;-81
2021/12/18 11:41:19;;;;;;;68.55;37.20;;;;;;;;;;5011178;28;20144;-80
2021/12/18 11:43:46;;;;;;;97.07;42.65;;;;;;;;;;5022876;28;20029;-80
2021/12/18 11:46:31;;;;;;;104.15;53.10;;;;;;;;;;5012267;28;20441;-80
2021/12/18 11:49:02;;;;;;;116.70;60.45;;;;;;;;;;5007031;28;20021;-80
2021/12/18 11:51:29;;;;;;;154.30;79.93;;;;;;;;;;5032983;28;20029;-79
2021/12/18 11:53:56;;;;;;;179.85;86.75;;;;;;;;;;5027339;28;20013;-79
2021/12/18 11:56:22;;;;;;;193.18;95.82;;;;;;;;;;5029536;28;20468;-79
2021/12/18 11:58:49;;;;;;;187.05;96.90;;;;;;;;;;5015141;28;20037;-79
2021/12/18 12:01:18;;;;;;;182.43;98.78;;;;;;;;;;5015122;28;20166;-78
2021/12/18 12:03:46;;;;;;;188.57;99.10;;;;;;;;;;5030415;28;20042;-82
2021/12/18 12:06:30;;;;;;;186.73;99.28;;;;;;;;;;5031552;28;20022;-79
2021/12/18 12:09:23;;;;;;;185.95;98.28;;;;;;;;;;5024155;28;20018;-80
2021/12/18 12:11:52;;;;;;;186.88;98.03;;;;;;;;;;5026700;28;20041;-81
2021/12/18 12:14:20;;;;;;;175.73;91.07;;;;;;;;;;5027813;28;20404;-80
2021/12/18 12:16:47;;;;;;;190.35;93.05;;;;;;;;;;5027980;28;20022;-79
2021/12/18 12:19:26;;;;;;;188.85;92.55;;;;;;;;;;5027487;28;20060;-81
2021/12/18 12:21:57;;;;;;;174.40;90.18;;;;;;;;;;5028946;28;20065;-80
2021/12/18 12:24:27;;;;;;;167.35;87.55;;;;;;;;;;5026993;28;20034;-80
2021/12/18 12:26:54;;;;;;;184.00;92.13;;;;;;;;;;5025463;28;20025;-80
2021/12/18 12:29:21;;;;;;;179.10;89.25;;;;;;;;;;5031744;28;20087;-81
2021/12/18 12:32:01;;;;;;;173.70;87.85;;;;;;;;;;5030415;28;20017;-80
2021/12/18 12:34:33;;;;;;;167.07;86.90;;;;;;;;;;5026982;28;20036;-80
2021/12/18 12:37:18;;;;;;;164.05;85.75;;;;;;;;;;5025238;28;20120;-80
2021/12/18 12:40:03;;;;;;;161.40;81.85;;;;;;;;;;5026687;28;20163;-79
2021/12/18 12:42:29;;;;;;;160.38;80.32;;;;;;;;;;5028128;28;20164;-81
2021/12/18 12:45:10;;;;;;;156.32;81.13;;;;;;;;;;5030766;28;20051;-80
2021/12/18 12:47:37;;;;;;;160.10;78.75;;;;;;;;;;5013022;28;20390;-80
2021/12/18 12:50:12;;;;;;;158.48;80.80;;;;;;;;;;5035298;28;20029;-80
2021/12/18 12:53:14;;;;;;;143.05;74.47;;;;;;;;;;5032062;28;20022;-79
2021/12/18 12:55:42;;;;;;;151.50;73.22;;;;;;;;;;4918991;29;20372;-80
2021/12/18 12:58:22;;;;;;;135.20;69.43;;;;;;;;;;5007785;28;20045;-79
2021/12/18 13:00:53;;;;;;;130.60;70.85;;;;;;;;;;5024994;28;20088;-80
2021/12/18 13:03:22;;;;;;;139.77;71.47;;;;;;;;;;5029911;28;20025;-80
2021/12/18 13:05:51;;;;;;;122.53;65.43;;;;;;;;;;5030655;28;20025;-80
2021/12/18 13:08:17;;;;;;;115.57;65.88;;;;;;;;;;5024366;28;20013;-80
2021/12/18 13:10:44;;;;;;;114.93;61.67;;;;;;;;;;5027687;28;20376;-81
2021/12/18 13:13:11;;;;;;;119.15;65.85;;;;;;;;;;5030186;28;20026;-81
2021/12/18 13:15:50;;;;;;;115.72;61.15;;;;;;;;;;5028683;28;20049;-82
2021/12/18 13:18:16;;;;;;;111.07;56.28;;;;;;;;;;5011480;28;20361;-80
2021/12/18 13:20:45;;;;;;;116.00;58.80;;;;;;;;;;5029305;28;20025;-79
2021/12/18 13:23:18;;;;;;;121.45;55.33;;;;;;;;;;5030070;28;20554;-81
2021/12/18 13:25:52;;;;;;;115.15;51.97;;;;;;;;;;5029093;28;20045;-80
2021/12/18 13:28:19;;;;;;;112.07;55.00;;;;;;;;;;5023358;28;20022;-81
2021/12/18 13:30:48;;;;;;;109.63;52.20;;;;;;;;;;5026215;28;20067;-80
2021/12/18 13:33:15;;;;;;;118.65;54.05;;;;;;;;;;5028806;28;20032;-80
2021/12/18 13:35:41;;;;;;;100.45;51.75;;;;;;;;;;5028377;28;20025;-80
2021/12/18 13:38:09;;;;;;;103.28;51.33;;;;;;;;;;5015456;28;20138;-80
2021/12/18 13:40:37;;;;;;;104.28;50.70;;;;;;;;;;5022229;28;20097;-82
2021/12/18 13:43:07;;;;;;;123.40;54.28;;;;;;;;;;5026729;28;20026;-80
2021/12/18 13:45:35;;;;;;;107.03;52.85;;;;;;;;;;5027889;28;20026;-79
2021/12/18 13:48:05;;;;;;;103.28;55.10;;;;;;;;;;5015082;28;20087;-80
2021/12/18 13:50:33;;;;;;;104.10;52.28;;;;;;;;;;5012236;28;20260;-78
2021/12/18 13:53:08;;;;;;;98.57;50.20;;;;;;;;;;5032937;28;20540;-79
2021/12/18 13:56:05;;;;;;;107.40;53.33;;;;;;;;;;5025093;28;20025;-80
2021/12/18 13:58:29;;;;;;;102.78;51.03;;;;;;;;;;5023741;28;20041;-80
2021/12/18 14:01:09;;;;;;;115.65;54.67;;;;;;;;;;5027306;28;20026;-82
2021/12/18 14:03:48;;;;;;;103.60;51.42;;;;;;;;;;5024633;28;20140;-82
2021/12/18 14:06:16;;;;;;;103.10;53.40;;;;;;;;;;5027301;28;20049;-80
2021/12/18 14:08:43;;;;;;;105.20;53.03;;;;;;;;;;5024578;28;20325;-81
2021/12/18 14:11:11;;;;;;;103.68;50.78;;;;;;;;;;5030623;28;20021;-81
2021/12/18 14:13:42;;;;;;;90.95;48.42;;;;;;;;;;5032426;28;20030;-81
2021/12/18 14:16:09;;;;;;;110.45;49.92;;;;;;;;;;5012876;28;20037;-80
2021/12/18 14:18:37;;;;;;;97.13;49.72;;;;;;;;;;5012036;28;20061;-80
2021/12/18 14:21:04;;;;;;;94.95;47.85;;;;;;;;;;5017674;28;20038;-79
2021/12/18 14:23:32;;;;;;;85.47;45.85;;;;;;;;;;5011440;28;20539;-81
2021/12/18 14:26:19;;;;;;;89.28;43.38;;;;;;;;;;5007857;28;20022;-81
2021/12/18 14:28:45;;;;;;;91.22;42.92;;;;;;;;;;5002999;28;20044;-81
2021/12/18 14:31:30;;;;;;;77.03;40.85;;;;;;;;;;5003613;28;20025;-81
2021/12/18 14:33:58;;;;;;;70.90;38.15;;;;;;;;;;5006667;28;20014;-81
2021/12/18 14:36:40;;;;;;;74.50;38.40;;;;;;;;;;5003697;28;20038;-81
2021/12/18 14:39:07;;;;;;;84.20;40.63;;;;;;;;;;5002235;28;20073;-81
2021/12/18 14:41:35;;;;;;;74.15;37.75;;;;;;;;;;5003508;28;20388;-84
2021/12/18 14:44:05;;;;;;;77.35;38.60;;;;;;;;;;5006531;28;20026;-82
2021/12/18 14:46:34;;;;;;;81.40;39.28;;;;;;;;;;5008645;28;20037;-80
2021/12/18 14:49:11;;;;;;;88.30;42.17;;;;;;;;;;4996345;28;20029;-81
2021/12/18 14:51:37;;;;;;;89.70;41.58;;;;;;;;;;4995818;28;20030;-82
2021/12/18 14:54:05;;;;;;;87.50;41.70;;;;;;;;;;4999046;28;20018;-81
2021/12/18 14:56:31;;;;;;;73.97;37.55;;;;;;;;;;4992807;28;20026;-81
2021/12/18 14:58:57;;;;;;;77.75;37.97;;;;;;;;;;4994909;28;20037;-81
2021/12/18 15:01:24;;;;;;;79.25;38.25;;;;;;;;;;5005773;28;20549;-81